Loodiep — A8ZO7 — position and weather

sailwx.info

Track history (hours):
 
Tides and Currents Weather Stations Pressure Air Temp Water Temp Dewpoint Dewpoint Depression Visibility Wind Speed Wind Dir Waves Ship Positions

Loodiep

Last reported at 2016-Feb-01 19:30 UTC. Time now 2016-Feb-07 04:03 UTC.
Position N 55°18' E 011°04'.

Length 108 m; draft 7 m.

Type: Cargo ship. MMSI: 636015263.

Date/timePositionNaut miles runAvg speedWind from/ knotsBaromVisibWave heightAir tempDewpointWater temp
2016-Feb-01 19:30N 55°18' E 011°04'8 8.2
2016-Feb-01 18:33N 55°10' E 011°04'9 9.1
2016-Feb-01 17:33N 55°01' E 011°02'10 9.7
2016-Feb-01 16:33N 54°53' E 010°53'10 9.9
2016-Feb-01 15:33N 54°43' E 010°53'1010.2
2016-Feb-01 14:33N 54°36' E 010°40'1310.6
2016-Feb-01 13:19N 54°30' E 010°20'7 9.7
2016-Feb-01 12:33N 54°24' E 010°12'3 3.0
2016-Feb-01 11:33N 54°22' E 010°09'6 5.8
2016-Feb-01 10:33N 54°21' E 009°59'8 8.0
2016-Feb-01 09:33N 54°21' E 009°45'26 5.2
2016-Feb-01 04:31N 54°00' E 009°18'8 7.9
2016-Feb-01 03:33N 53°54' E 009°10'1 0.7
2016-Feb-01 02:33N 53°54' E 009°09'3 3.2
2016-Feb-01 01:33N 53°52' E 009°04'8 7.7
2016-Feb-01 00:33N 53°50' E 008°51'7 7.5
2016-Jan-31 23:33N 53°54' E 008°41'8 7.6
2016-Jan-31 22:33N 53°58' E 008°30'9 8.6
2016-Jan-31 21:33N 53°60' E 008°15'10 9.9
2016-Jan-31 20:33N 53°58' E 007°58'9 9.4
2016-Jan-31 19:33N 53°56' E 007°43'9 8.8
2016-Jan-31 18:33N 53°54' E 007°28'1110.8
2016-Jan-31 17:33N 53°52' E 007°11'7 7.0
2016-Jan-31 16:33N 53°50' E 006°59'9 9.4
2016-Jan-31 15:33N 53°48' E 006°44'10 9.8
2016-Jan-31 14:33N 53°46' E 006°28'1010.1
2016-Jan-31 13:33N 53°43' E 006°11'1010.3
2016-Jan-31 12:33N 53°39' E 005°55'1010.5
2016-Jan-31 11:33N 53°36' E 005°38'1110.7
2016-Jan-31 10:33N 53°32' E 005°21'1111.3
2016-Jan-31 09:33N 53°29' E 005°03'20 9.1
2016-Jan-31 07:18N 53°15' E 004°38'7 9.0
2016-Jan-31 06:33N 53°09' E 004°33'9 8.5
2016-Jan-31 05:32N 53°01' E 004°25'7 7.7
2016-Jan-31 04:33N 52°55' E 004°19'7 7.4
2016-Jan-31 03:32N 52°48' E 004°13'91 8.8
2016-Jan-30 17:07N 51°42' E 002°31'611.1
2016-Jan-30 16:33N 51°37' E 002°25'1110.9
2016-Jan-30 15:33N 51°28' E 002°14'1010.0
2016-Jan-30 14:33N 51°19' E 002°08'10 9.5
2016-Jan-30 13:33N 51°12' E 001°59'9 9.4
2016-Jan-30 12:33N 51°06' E 001°46'11 8.2
2016-Jan-30 11:09N 50°58' E 001°34'5 7.5
2016-Jan-30 10:33N 50°54' E 001°29'  
2016-Jan-27 01:28N 41°57' W 009°46'9 9.8
2016-Jan-27 00:31N 41°48' W 009°46'19 9.7
2016-Jan-26 22:31N 41°28' W 009°47'10 9.5
2016-Jan-26 21:28N 41°18' W 009°47'9 9.4
2016-Jan-26 20:31N 41°09' W 009°48'32 9.7
2016-Jan-26 17:16N 40°38' W 009°50'18 9.8
2016-Jan-26 15:28N 40°20' W 009°50'9 9.7
2016-Jan-26 14:32N 40°11' W 009°50'9 9.3
2016-Jan-26 13:31N 40°02' W 009°51'10 9.3
2016-Jan-26 12:28N 39°52' W 009°51'10 9.6
2016-Jan-26 11:28N 39°42' W 009°51'9 9.1
2016-Jan-26 10:31N 39°34' W 009°51'9 8.7
2016-Jan-26 09:31N 39°25' W 009°50'10 9.1
2016-Jan-26 08:28N 39°15' W 009°50'7 7.0
2016-Jan-26 07:31N 39°09' W 009°51'9 8.8
2016-Jan-26 06:33N 39°00' W 009°51'9 9.0
2016-Jan-26 05:33N 38°51' W 009°52'8 8.5
2016-Jan-26 04:33N 38°43' W 009°50'9 9.1
2016-Jan-26 03:33N 38°34' W 009°48'9 9.2
2016-Jan-26 02:33N 38°25' W 009°46'11 9.2
2016-Jan-26 01:23N 38°14' W 009°42'8 9.5
2016-Jan-26 00:32N 38°06' W 009°40'9 9.4
2016-Jan-25 23:33N 37°57' W 009°38'9 9.4
2016-Jan-25 22:33N 37°48' W 009°35'10 9.6
2016-Jan-25 21:33N 37°39' W 009°33'12 9.6
2016-Jan-25 20:15N 37°27' W 009°29'7 9.4
2016-Jan-25 19:33N 37°20' W 009°27'9 9.3
2016-Jan-25 18:34N 37°11' W 009°24'9 9.4
2016-Jan-25 17:33N 37°02' W 009°22'9 9.3
2016-Jan-25 16:33N 36°53' W 009°18'9 8.7
2016-Jan-25 15:31N 36°47' W 009°10'12 8.7
2016-Jan-25 14:10N 36°42' W 008°57'6 9.3
2016-Jan-25 13:30N 36°40' W 008°49'9 8.6
2016-Jan-25 12:28N 36°37' W 008°39'8 8.9
2016-Jan-25 11:33N 36°34' W 008°30'9 9.5
2016-Jan-25 10:34N 36°31' W 008°19'10 9.6
2016-Jan-25 09:31N 36°28' W 008°07'30 9.6
2016-Jan-25 06:26N 36°19' W 007°32'9410.3
2016-Jan-24 21:15N 35°58' W 005°38'710.2
2016-Jan-24 20:33N 35°59' W 005°29'10 9.6
2016-Jan-24 19:33N 35°55' W 005°19'1 1.1
2016-Jan-24 18:33N 35°54' W 005°18'0 0.0
2016-Jan-24 17:33N 35°54' W 005°18'0 0.0
2016-Jan-24 16:33N 35°54' W 005°18'0 0.5
2016-Jan-24 15:33N 35°54' W 005°19'1 1.0
2016-Jan-24 14:34N 35°55' W 005°20'0 0.0
2016-Jan-24 13:34N 35°55' W 005°20'1 1.2
2016-Jan-24 12:33N 35°55' W 005°18'123 8.7
2016-Jan-23 22:31N 36°25' W 002°51'10 9.8
2016-Jan-23 21:33N 36°25' W 002°39'10 9.6
2016-Jan-23 20:30N 36°26' W 002°27'8 8.8
2016-Jan-23 19:33N 36°25' W 002°17'9 8.7
2016-Jan-23 18:33N 36°27' W 002°06'10 9.8
2016-Jan-23 17:33N 36°30' W 001°54'5210.1
2016-Jan-23 12:22N 36°43' W 000°51'8 9.8
2016-Jan-23 11:33N 36°45' W 000°42'1010.1
2016-Jan-23 10:31N 36°49' W 000°29'26 8.1
2016-Jan-23 07:22N 36°55' E 000°02'910.4
2016-Jan-23 06:31N 36°57' E 000°13'1110.6
2016-Jan-23 05:30N 36°60' E 000°26'1010.8
2016-Jan-23 04:33N 37°02' E 000°38'1110.6
2016-Jan-23 03:33N 37°05' E 000°51'1210.5
2016-Jan-23 02:23N 37°08' E 001°06'1910.4
2016-Jan-23 00:33N 37°13' E 001°29'  
Track history (hours):
 
Tides and Currents Weather Stations Pressure Air Temp Water Temp Dewpoint Dewpoint Depression Visibility Wind Speed Wind Dir Waves Ship Positions

Loodiep

Last reported at 2016-Feb-01 19:30 UTC. Time now 2016-Feb-07 04:03 UTC.
Position N 55°18' E 011°04'.

Length 108 m; draft 7 m.

Type: Cargo ship. MMSI: 636015263.

Date/timePositionNaut miles runAvg speedWind from/ knotsBaromVisibWave heightAir tempDewpointWater temp
2016-Feb-01 19:30N 55°18' E 011°04'8 8.2
2016-Feb-01 18:33N 55°10' E 011°04'9 9.1
2016-Feb-01 17:33N 55°01' E 011°02'10 9.7
2016-Feb-01 16:33N 54°53' E 010°53'10 9.9
2016-Feb-01 15:33N 54°43' E 010°53'1010.2
2016-Feb-01 14:33N 54°36' E 010°40'1310.6
2016-Feb-01 13:19N 54°30' E 010°20'7 9.7
2016-Feb-01 12:33N 54°24' E 010°12'3 3.0
2016-Feb-01 11:33N 54°22' E 010°09'6 5.8
2016-Feb-01 10:33N 54°21' E 009°59'8 8.0
2016-Feb-01 09:33N 54°21' E 009°45'26 5.2
2016-Feb-01 04:31N 54°00' E 009°18'8 7.9
2016-Feb-01 03:33N 53°54' E 009°10'1 0.7
2016-Feb-01 02:33N 53°54' E 009°09'3 3.2
2016-Feb-01 01:33N 53°52' E 009°04'8 7.7
2016-Feb-01 00:33N 53°50' E 008°51'7 7.5
2016-Jan-31 23:33N 53°54' E 008°41'8 7.6
2016-Jan-31 22:33N 53°58' E 008°30'9 8.6
2016-Jan-31 21:33N 53°60' E 008°15'10 9.9
2016-Jan-31 20:33N 53°58' E 007°58'9 9.4
2016-Jan-31 19:33N 53°56' E 007°43'9 8.8
2016-Jan-31 18:33N 53°54' E 007°28'1110.8
2016-Jan-31 17:33N 53°52' E 007°11'7 7.0
2016-Jan-31 16:33N 53°50' E 006°59'9 9.4
2016-Jan-31 15:33N 53°48' E 006°44'10 9.8
2016-Jan-31 14:33N 53°46' E 006°28'1010.1
2016-Jan-31 13:33N 53°43' E 006°11'1010.3
2016-Jan-31 12:33N 53°39' E 005°55'1010.5
2016-Jan-31 11:33N 53°36' E 005°38'1110.7
2016-Jan-31 10:33N 53°32' E 005°21'1111.3
2016-Jan-31 09:33N 53°29' E 005°03'20 9.1
2016-Jan-31 07:18N 53°15' E 004°38'7 9.0
2016-Jan-31 06:33N 53°09' E 004°33'9 8.5
2016-Jan-31 05:32N 53°01' E 004°25'7 7.7
2016-Jan-31 04:33N 52°55' E 004°19'7 7.4
2016-Jan-31 03:32N 52°48' E 004°13'91 8.8
2016-Jan-30 17:07N 51°42' E 002°31'611.1
2016-Jan-30 16:33N 51°37' E 002°25'1110.9
2016-Jan-30 15:33N 51°28' E 002°14'1010.0
2016-Jan-30 14:33N 51°19' E 002°08'10 9.5
2016-Jan-30 13:33N 51°12' E 001°59'9 9.4
2016-Jan-30 12:33N 51°06' E 001°46'11 8.2
2016-Jan-30 11:09N 50°58' E 001°34'5 7.5
2016-Jan-30 10:33N 50°54' E 001°29'  
2016-Jan-27 01:28N 41°57' W 009°46'9 9.8
2016-Jan-27 00:31N 41°48' W 009°46'19 9.7
2016-Jan-26 22:31N 41°28' W 009°47'10 9.5
2016-Jan-26 21:28N 41°18' W 009°47'9 9.4
2016-Jan-26 20:31N 41°09' W 009°48'32 9.7
2016-Jan-26 17:16N 40°38' W 009°50'18 9.8
2016-Jan-26 15:28N 40°20' W 009°50'9 9.7
2016-Jan-26 14:32N 40°11' W 009°50'9 9.3
2016-Jan-26 13:31N 40°02' W 009°51'10 9.3
2016-Jan-26 12:28N 39°52' W 009°51'10 9.6
2016-Jan-26 11:28N 39°42' W 009°51'9 9.1
2016-Jan-26 10:31N 39°34' W 009°51'9 8.7
2016-Jan-26 09:31N 39°25' W 009°50'10 9.1
2016-Jan-26 08:28N 39°15' W 009°50'7 7.0
2016-Jan-26 07:31N 39°09' W 009°51'9 8.8
2016-Jan-26 06:33N 39°00' W 009°51'9 9.0
2016-Jan-26 05:33N 38°51' W 009°52'8 8.5
2016-Jan-26 04:33N 38°43' W 009°50'9 9.1
2016-Jan-26 03:33N 38°34' W 009°48'9 9.2
2016-Jan-26 02:33N 38°25' W 009°46'11 9.2
2016-Jan-26 01:23N 38°14' W 009°42'8 9.5
2016-Jan-26 00:32N 38°06' W 009°40'9 9.4
2016-Jan-25 23:33N 37°57' W 009°38'9 9.4
2016-Jan-25 22:33N 37°48' W 009°35'10 9.6
2016-Jan-25 21:33N 37°39' W 009°33'12 9.6
2016-Jan-25 20:15N 37°27' W 009°29'7 9.4
2016-Jan-25 19:33N 37°20' W 009°27'9 9.3
2016-Jan-25 18:34N 37°11' W 009°24'9 9.4
2016-Jan-25 17:33N 37°02' W 009°22'9 9.3
2016-Jan-25 16:33N 36°53' W 009°18'9 8.7
2016-Jan-25 15:31N 36°47' W 009°10'12 8.7
2016-Jan-25 14:10N 36°42' W 008°57'6 9.3
2016-Jan-25 13:30N 36°40' W 008°49'9 8.6
2016-Jan-25 12:28N 36°37' W 008°39'8 8.9
2016-Jan-25 11:33N 36°34' W 008°30'9 9.5
2016-Jan-25 10:34N 36°31' W 008°19'10 9.6
2016-Jan-25 09:31N 36°28' W 008°07'30 9.6
2016-Jan-25 06:26N 36°19' W 007°32'9410.3
2016-Jan-24 21:15N 35°58' W 005°38'710.2
2016-Jan-24 20:33N 35°59' W 005°29'10 9.6
2016-Jan-24 19:33N 35°55' W 005°19'1 1.1
2016-Jan-24 18:33N 35°54' W 005°18'0 0.0
2016-Jan-24 17:33N 35°54' W 005°18'0 0.0
2016-Jan-24 16:33N 35°54' W 005°18'0 0.5
2016-Jan-24 15:33N 35°54' W 005°19'1 1.0
2016-Jan-24 14:34N 35°55' W 005°20'0 0.0
2016-Jan-24 13:34N 35°55' W 005°20'1 1.2
2016-Jan-24 12:33N 35°55' W 005°18'123 8.7
2016-Jan-23 22:31N 36°25' W 002°51'10 9.8
2016-Jan-23 21:33N 36°25' W 002°39'10 9.6
2016-Jan-23 20:30N 36°26' W 002°27'8 8.8
2016-Jan-23 19:33N 36°25' W 002°17'9 8.7
2016-Jan-23 18:33N 36°27' W 002°06'10 9.8
2016-Jan-23 17:33N 36°30' W 001°54'5210.1
2016-Jan-23 12:22N 36°43' W 000°51'8 9.8
2016-Jan-23 11:33N 36°45' W 000°42'1010.1
2016-Jan-23 10:31N 36°49' W 000°29'26 8.1
2016-Jan-23 07:22N 36°55' E 000°02'910.4
2016-Jan-23 06:31N 36°57' E 000°13'1110.6
2016-Jan-23 05:30N 36°60' E 000°26'1010.8
2016-Jan-23 04:33N 37°02' E 000°38'1110.6
2016-Jan-23 03:33N 37°05' E 000°51'1210.5
2016-Jan-23 02:23N 37°08' E 001°06'1910.4
2016-Jan-23 00:33N 37°13' E 001°29'  

Dump ship's entire track history